sensor_id;sensor_type;location;lat;lon;timestamp;temperature;humidity
29917;DHT22;16786;49.466;11.068;2023-05-27T00:02:24;14.40;99.90
29917;DHT22;16786;49.466;11.068;2023-05-27T00:04:53;14.40;99.90
29917;DHT22;16786;49.466;11.068;2023-05-27T00:07:20;14.40;99.90
29917;DHT22;16786;49.466;11.068;2023-05-27T00:09:49;14.30;99.90
29917;DHT22;16786;49.466;11.068;2023-05-27T00:12:16;14.40;99.90
29917;DHT22;16786;49.466;11.068;2023-05-27T00:14:44;14.40;99.90
29917;DHT22;16786;49.466;11.068;2023-05-27T00:17:11;14.30;99.90
29917;DHT22;16786;49.466;11.068;2023-05-27T00:19:42;14.30;99.90
29917;DHT22;16786;49.466;11.068;2023-05-27T00:22:12;14.20;99.90
29917;DHT22;16786;49.466;11.068;2023-05-27T00:24:39;14.20;99.90
29917;DHT22;16786;49.466;11.068;2023-05-27T00:27:09;14.20;99.90
29917;DHT22;16786;49.466;11.068;2023-05-27T00:29:37;14.20;99.90
29917;DHT22;16786;49.466;11.068;2023-05-27T00:32:05;14.20;99.90
29917;DHT22;16786;49.466;11.068;2023-05-27T00:34:32;14.10;99.90
29917;DHT22;16786;49.466;11.068;2023-05-27T00:37:01;14.10;99.90
29917;DHT22;16786;49.466;11.068;2023-05-27T00:39:29;14.10;99.90
29917;DHT22;16786;49.466;11.068;2023-05-27T00:41:58;14.20;99.90
29917;DHT22;16786;49.466;11.068;2023-05-27T00:44:25;14.10;99.90
29917;DHT22;16786;49.466;11.068;2023-05-27T00:46:52;14.10;99.90
29917;DHT22;16786;49.466;11.068;2023-05-27T00:49:20;14.10;99.90
29917;DHT22;16786;49.466;11.068;2023-05-27T00:51:47;14.00;99.90
29917;DHT22;16786;49.466;11.068;2023-05-27T00:54:15;14.00;99.90
29917;DHT22;16786;49.466;11.068;2023-05-27T00:56:43;14.00;99.90
29917;DHT22;16786;49.466;11.068;2023-05-27T00:59:11;13.90;99.90
29917;DHT22;16786;49.466;11.068;2023-05-27T01:01:38;13.90;99.90
29917;DHT22;16786;49.466;11.068;2023-05-27T01:04:07;13.90;99.90
29917;DHT22;16786;49.466;11.068;2023-05-27T01:12:38;13.80;99.90
29917;DHT22;16786;49.466;11.068;2023-05-27T01:15:04;13.70;99.90
29917;DHT22;16786;49.466;11.068;2023-05-27T01:17:33;13.70;99.90
29917;DHT22;16786;49.466;11.068;2023-05-27T01:20:10;13.60;99.90
29917;DHT22;16786;49.466;11.068;2023-05-27T01:22:42;13.60;99.90
29917;DHT22;16786;49.466;11.068;2023-05-27T01:25:10;13.60;99.90
29917;DHT22;16786;49.466;11.068;2023-05-27T01:27:38;13.50;99.90
29917;DHT22;16786;49.466;11.068;2023-05-27T01:30:08;13.50;99.90
29917;DHT22;16786;49.466;11.068;2023-05-27T01:38:07;13.50;99.90
29917;DHT22;16786;49.466;11.068;2023-05-27T01:40:39;13.50;99.90
29917;DHT22;16786;49.466;11.068;2023-05-27T01:43:08;13.40;99.90
29917;DHT22;16786;49.466;11.068;2023-05-27T01:45:37;13.40;99.90
29917;DHT22;16786;49.466;11.068;2023-05-27T01:48:05;13.30;99.90
29917;DHT22;16786;49.466;11.068;2023-05-27T01:50:33;13.30;99.90
29917;DHT22;16786;49.466;11.068;2023-05-27T01:53:01;13.30;99.90
29917;DHT22;16786;49.466;11.068;2023-05-27T01:55:30;13.20;99.90
29917;DHT22;16786;49.466;11.068;2023-05-27T01:57:58;13.20;99.90
29917;DHT22;16786;49.466;11.068;2023-05-27T02:00:25;13.20;99.90
29917;DHT22;16786;49.466;11.068;2023-05-27T02:02:52;13.20;99.90
29917;DHT22;16786;49.466;11.068;2023-05-27T02:05:20;13.20;99.90
29917;DHT22;16786;49.466;11.068;2023-05-27T02:07:48;13.10;99.90
29917;DHT22;16786;49.466;11.068;2023-05-27T02:10:15;13.10;99.90
29917;DHT22;16786;49.466;11.068;2023-05-27T02:12:42;13.10;99.90
29917;DHT22;16786;49.466;11.068;2023-05-27T02:15:11;13.10;99.90
29917;DHT22;16786;49.466;11.068;2023-05-27T02:17:38;13.00;99.90
29917;DHT22;16786;49.466;11.068;2023-05-27T02:20:06;13.00;99.90
29917;DHT22;16786;49.466;11.068;2023-05-27T02:22:35;13.00;99.90
29917;DHT22;16786;49.466;11.068;2023-05-27T02:25:02;13.00;99.90
29917;DHT22;16786;49.466;11.068;2023-05-27T02:27:30;13.00;99.90
29917;DHT22;16786;49.466;11.068;2023-05-27T02:29:57;13.00;99.90
29917;DHT22;16786;49.466;11.068;2023-05-27T02:32:25;13.00;99.90
29917;DHT22;16786;49.466;11.068;2023-05-27T02:34:52;13.00;99.90
29917;DHT22;16786;49.466;11.068;2023-05-27T02:37:20;12.90;99.90
29917;DHT22;16786;49.466;11.068;2023-05-27T02:39:47;12.80;99.90
29917;DHT22;16786;49.466;11.068;2023-05-27T02:42:14;12.70;99.90
29917;DHT22;16786;49.466;11.068;2023-05-27T02:44:42;12.60;99.90
29917;DHT22;16786;49.466;11.068;2023-05-27T02:47:09;12.60;99.90
29917;DHT22;16786;49.466;11.068;2023-05-27T02:49:39;12.50;99.90
29917;DHT22;16786;49.466;11.068;2023-05-27T02:52:06;12.50;99.90
29917;DHT22;16786;49.466;11.068;2023-05-27T02:54:33;12.40;99.90
29917;DHT22;16786;49.466;11.068;2023-05-27T02:57:01;12.40;99.90
29917;DHT22;16786;49.466;11.068;2023-05-27T02:59:28;12.30;99.90
29917;DHT22;16786;49.466;11.068;2023-05-27T03:01:56;12.20;99.90
29917;DHT22;16786;49.466;11.068;2023-05-27T03:04:23;12.10;99.90
29917;DHT22;16786;49.466;11.068;2023-05-27T03:06:52;12.10;99.90
29917;DHT22;16786;49.466;11.068;2023-05-27T03:09:19;12.00;99.90
29917;DHT22;16786;49.466;11.068;2023-05-27T03:11:46;12.00;99.90
29917;DHT22;16786;49.466;11.068;2023-05-27T03:14:14;11.90;99.90
29917;DHT22;16786;49.466;11.068;2023-05-27T03:16:41;11.90;99.90
29917;DHT22;16786;49.466;11.068;2023-05-27T03:19:09;11.90;99.90
29917;DHT22;16786;49.466;11.068;2023-05-27T03:21:36;11.90;99.90
29917;DHT22;16786;49.466;11.068;2023-05-27T03:24:04;11.80;99.90
29917;DHT22;16786;49.466;11.068;2023-05-27T03:26:31;11.70;99.90
29917;DHT22;16786;49.466;11.068;2023-05-27T03:29:03;11.70;99.90
29917;DHT22;16786;49.466;11.068;2023-05-27T03:31:30;11.70;99.90
29917;DHT22;16786;49.466;11.068;2023-05-27T03:34:06;11.70;99.90
29917;DHT22;16786;49.466;11.068;2023-05-27T03:36:34;11.60;99.90
29917;DHT22;16786;49.466;11.068;2023-05-27T03:39:02;11.60;99.90
29917;DHT22;16786;49.466;11.068;2023-05-27T03:41:33;11.60;99.90
29917;DHT22;16786;49.466;11.068;2023-05-27T03:44:01;11.50;99.90
29917;DHT22;16786;49.466;11.068;2023-05-27T03:46:29;11.50;99.90
29917;DHT22;16786;49.466;11.068;2023-05-27T03:48:57;11.50;99.90
29917;DHT22;16786;49.466;11.068;2023-05-27T03:51:25;11.50;99.90
29917;DHT22;16786;49.466;11.068;2023-05-27T03:53:52;11.50;99.90
29917;DHT22;16786;49.466;11.068;2023-05-27T03:56:20;11.50;99.90
29917;DHT22;16786;49.466;11.068;2023-05-27T03:58:50;11.60;99.90
29917;DHT22;16786;49.466;11.068;2023-05-27T04:01:17;11.60;99.90
29917;DHT22;16786;49.466;11.068;2023-05-27T04:03:45;11.60;99.90
29917;DHT22;16786;49.466;11.068;2023-05-27T04:06:12;11.70;99.90
29917;DHT22;16786;49.466;11.068;2023-05-27T04:08:39;11.70;99.90
29917;DHT22;16786;49.466;11.068;2023-05-27T04:11:11;11.70;99.90
29917;DHT22;16786;49.466;11.068;2023-05-27T04:13:40;11.70;99.90
29917;DHT22;16786;49.466;11.068;2023-05-27T04:16:08;11.70;99.90
29917;DHT22;16786;49.466;11.068;2023-05-27T04:18:35;11.80;99.90
29917;DHT22;16786;49.466;11.068;2023-05-27T04:21:03;11.80;99.90
29917;DHT22;16786;49.466;11.068;2023-05-27T04:23:31;11.90;99.90
29917;DHT22;16786;49.466;11.068;2023-05-27T04:26:01;11.90;99.90
29917;DHT22;16786;49.466;11.068;2023-05-27T04:28:33;11.80;99.90
29917;DHT22;16786;49.466;11.068;2023-05-27T04:31:01;11.80;99.90
29917;DHT22;16786;49.466;11.068;2023-05-27T04:33:43;11.90;99.90
29917;DHT22;16786;49.466;11.068;2023-05-27T04:36:12;12.00;99.90
29917;DHT22;16786;49.466;11.068;2023-05-27T04:38:55;12.00;99.90
29917;DHT22;16786;49.466;11.068;2023-05-27T04:41:23;12.00;99.90
29917;DHT22;16786;49.466;11.068;2023-05-27T04:44:12;12.10;99.90
29917;DHT22;16786;49.466;11.068;2023-05-27T04:46:43;12.20;99.90
29917;DHT22;16786;49.466;11.068;2023-05-27T04:49:11;12.20;99.90
29917;DHT22;16786;49.466;11.068;2023-05-27T04:51:38;12.20;99.90
29917;DHT22;16786;49.466;11.068;2023-05-27T04:54:07;12.30;99.90
29917;DHT22;16786;49.466;11.068;2023-05-27T04:56:35;12.20;99.90
29917;DHT22;16786;49.466;11.068;2023-05-27T04:59:03;12.30;99.90
29917;DHT22;16786;49.466;11.068;2023-05-27T05:01:33;12.50;99.90
29917;DHT22;16786;49.466;11.068;2023-05-27T05:04:25;12.60;99.90
29917;DHT22;16786;49.466;11.068;2023-05-27T05:06:59;12.70;99.90
29917;DHT22;16786;49.466;11.068;2023-05-27T05:09:27;12.70;99.90
29917;DHT22;16786;49.466;11.068;2023-05-27T05:11:59;12.70;99.90
29917;DHT22;16786;49.466;11.068;2023-05-27T05:14:28;12.70;99.90
29917;DHT22;16786;49.466;11.068;2023-05-27T05:16:56;12.70;99.90
29917;DHT22;16786;49.466;11.068;2023-05-27T05:19:23;12.80;99.90
29917;DHT22;16786;49.466;11.068;2023-05-27T05:21:51;12.80;99.90
29917;DHT22;16786;49.466;11.068;2023-05-27T05:24:18;12.80;99.90
29917;DHT22;16786;49.466;11.068;2023-05-27T05:26:45;12.90;99.90
29917;DHT22;16786;49.466;11.068;2023-05-27T05:29:13;13.00;99.90
29917;DHT22;16786;49.466;11.068;2023-05-27T05:31:41;13.20;99.90
29917;DHT22;16786;49.466;11.068;2023-05-27T05:34:17;13.20;99.90
29917;DHT22;16786;49.466;11.068;2023-05-27T05:36:46;13.40;99.90
29917;DHT22;16786;49.466;11.068;2023-05-27T05:39:13;13.50;99.90
29917;DHT22;16786;49.466;11.068;2023-05-27T05:41:46;13.70;99.90
29917;DHT22;16786;49.466;11.068;2023-05-27T05:44:17;13.80;99.90
29917;DHT22;16786;49.466;11.068;2023-05-27T05:46:44;14.00;99.90
29917;DHT22;16786;49.466;11.068;2023-05-27T05:49:12;14.10;99.90
29917;DHT22;16786;49.466;11.068;2023-05-27T05:51:43;14.20;99.90
29917;DHT22;16786;49.466;11.068;2023-05-27T05:54:11;14.30;99.90
29917;DHT22;16786;49.466;11.068;2023-05-27T05:56:43;14.40;99.90
29917;DHT22;16786;49.466;11.068;2023-05-27T05:59:11;14.50;99.90
29917;DHT22;16786;49.466;11.068;2023-05-27T06:01:38;14.60;99.90
29917;DHT22;16786;49.466;11.068;2023-05-27T06:04:06;14.70;99.90
29917;DHT22;16786;49.466;11.068;2023-05-27T06:06:38;14.80;99.90
29917;DHT22;16786;49.466;11.068;2023-05-27T06:09:25;15.00;99.90
29917;DHT22;16786;49.466;11.068;2023-05-27T06:11:57;15.10;99.90
29917;DHT22;16786;49.466;11.068;2023-05-27T06:14:25;15.10;99.90
29917;DHT22;16786;49.466;11.068;2023-05-27T06:16:56;15.20;99.90
29917;DHT22;16786;49.466;11.068;2023-05-27T06:19:24;15.30;99.90
29917;DHT22;16786;49.466;11.068;2023-05-27T06:21:51;15.30;99.90
29917;DHT22;16786;49.466;11.068;2023-05-27T06:24:24;15.40;99.90
29917;DHT22;16786;49.466;11.068;2023-05-27T06:27:01;15.50;99.90
29917;DHT22;16786;49.466;11.068;2023-05-27T06:29:29;15.50;99.90
29917;DHT22;16786;49.466;11.068;2023-05-27T06:31:56;15.50;99.90
29917;DHT22;16786;49.466;11.068;2023-05-27T06:34:24;15.70;99.90
29917;DHT22;16786;49.466;11.068;2023-05-27T06:36:52;15.80;99.90
29917;DHT22;16786;49.466;11.068;2023-05-27T06:39:20;15.80;99.90
29917;DHT22;16786;49.466;11.068;2023-05-27T06:41:47;15.80;99.90
29917;DHT22;16786;49.466;11.068;2023-05-27T06:44:43;15.90;99.90
29917;DHT22;16786;49.466;11.068;2023-05-27T06:47:15;16.00;99.90
29917;DHT22;16786;49.466;11.068;2023-05-27T06:49:43;16.00;99.90
29917;DHT22;16786;49.466;11.068;2023-05-27T06:52:11;16.10;99.90
29917;DHT22;16786;49.466;11.068;2023-05-27T06:55:02;16.20;99.90
29917;DHT22;16786;49.466;11.068;2023-05-27T06:57:50;16.20;99.90
29917;DHT22;16786;49.466;11.068;2023-05-27T07:00:27;16.40;99.90
29917;DHT22;16786;49.466;11.068;2023-05-27T07:03:14;16.40;99.90
29917;DHT22;16786;49.466;11.068;2023-05-27T07:05:42;16.50;99.90
29917;DHT22;16786;49.466;11.068;2023-05-27T07:08:10;16.50;99.90
29917;DHT22;16786;49.466;11.068;2023-05-27T07:10:38;16.60;99.90
29917;DHT22;16786;49.466;11.068;2023-05-27T07:13:05;16.70;99.90
29917;DHT22;16786;49.466;11.068;2023-05-27T07:15:43;16.70;99.90
29917;DHT22;16786;49.466;11.068;2023-05-27T07:18:10;16.80;99.90
29917;DHT22;16786;49.466;11.068;2023-05-27T07:20:38;16.90;99.90
29917;DHT22;16786;49.466;11.068;2023-05-27T07:23:09;16.80;99.90
29917;DHT22;16786;49.466;11.068;2023-05-27T07:25:38;16.90;99.90
29917;DHT22;16786;49.466;11.068;2023-05-27T07:28:05;17.10;99.90
29917;DHT22;16786;49.466;11.068;2023-05-27T07:30:38;17.20;99.90
29917;DHT22;16786;49.466;11.068;2023-05-27T07:33:06;17.20;99.90
29917;DHT22;16786;49.466;11.068;2023-05-27T07:35:34;17.20;99.90
29917;DHT22;16786;49.466;11.068;2023-05-27T07:38:01;17.10;99.90
29917;DHT22;16786;49.466;11.068;2023-05-27T07:40:29;17.20;99.90
29917;DHT22;16786;49.466;11.068;2023-05-27T07:42:57;17.30;99.90
29917;DHT22;16786;49.466;11.068;2023-05-27T07:45:24;17.30;99.90
29917;DHT22;16786;49.466;11.068;2023-05-27T07:47:52;17.50;99.90
29917;DHT22;16786;49.466;11.068;2023-05-27T07:50:20;17.60;99.90
29917;DHT22;16786;49.466;11.068;2023-05-27T07:53:08;17.70;99.90
29917;DHT22;16786;49.466;11.068;2023-05-27T07:55:38;17.80;99.90
29917;DHT22;16786;49.466;11.068;2023-05-27T07:58:05;17.90;99.90
29917;DHT22;16786;49.466;11.068;2023-05-27T08:00:45;18.00;99.90
29917;DHT22;16786;49.466;11.068;2023-05-27T08:03:13;18.10;99.90
29917;DHT22;16786;49.466;11.068;2023-05-27T08:06:13;18.10;99.90
29917;DHT22;16786;49.466;11.068;2023-05-27T08:08:50;18.30;99.90
29917;DHT22;16786;49.466;11.068;2023-05-27T08:11:36;18.30;99.90
29917;DHT22;16786;49.466;11.068;2023-05-27T08:14:20;18.30;99.90
29917;DHT22;16786;49.466;11.068;2023-05-27T08:17:10;18.40;99.90
29917;DHT22;16786;49.466;11.068;2023-05-27T08:19:53;18.50;99.90
29917;DHT22;16786;49.466;11.068;2023-05-27T08:22:50;18.60;99.90
29917;DHT22;16786;49.466;11.068;2023-05-27T08:25:17;18.60;99.90
29917;DHT22;16786;49.466;11.068;2023-05-27T08:27:58;18.70;99.90
29917;DHT22;16786;49.466;11.068;2023-05-27T08:30:37;18.70;99.90
29917;DHT22;16786;49.466;11.068;2023-05-27T08:33:16;18.90;99.90
29917;DHT22;16786;49.466;11.068;2023-05-27T08:35:44;19.00;99.90
29917;DHT22;16786;49.466;11.068;2023-05-27T08:38:12;19.10;99.90
29917;DHT22;16786;49.466;11.068;2023-05-27T08:40:40;19.20;99.90
29917;DHT22;16786;49.466;11.068;2023-05-27T08:43:08;19.30;99.90
29917;DHT22;16786;49.466;11.068;2023-05-27T08:45:42;19.40;99.90
29917;DHT22;16786;49.466;11.068;2023-05-27T08:48:12;19.40;99.90
29917;DHT22;16786;49.466;11.068;2023-05-27T08:50:42;19.60;99.90
29917;DHT22;16786;49.466;11.068;2023-05-27T08:53:09;19.70;99.90
29917;DHT22;16786;49.466;11.068;2023-05-27T08:55:39;19.90;99.90
29917;DHT22;16786;49.466;11.068;2023-05-27T08:58:09;19.90;99.90
29917;DHT22;16786;49.466;11.068;2023-05-27T09:00:42;20.00;99.90
29917;DHT22;16786;49.466;11.068;2023-05-27T09:03:16;20.00;99.90
29917;DHT22;16786;49.466;11.068;2023-05-27T09:05:45;20.00;99.90
29917;DHT22;16786;49.466;11.068;2023-05-27T09:08:12;20.00;99.90
29917;DHT22;16786;49.466;11.068;2023-05-27T09:10:41;20.10;99.90
29917;DHT22;16786;49.466;11.068;2023-05-27T09:13:09;20.10;99.90
29917;DHT22;16786;49.466;11.068;2023-05-27T09:15:36;20.30;99.90
29917;DHT22;16786;49.466;11.068;2023-05-27T09:18:05;20.50;99.90
29917;DHT22;16786;49.466;11.068;2023-05-27T09:20:32;20.50;99.90
29917;DHT22;16786;49.466;11.068;2023-05-27T09:23:02;20.70;99.90
29917;DHT22;16786;49.466;11.068;2023-05-27T09:25:29;20.70;99.90
29917;DHT22;16786;49.466;11.068;2023-05-27T09:27:57;20.90;99.90
29917;DHT22;16786;49.466;11.068;2023-05-27T09:30:24;20.90;99.60
29917;DHT22;16786;49.466;11.068;2023-05-27T09:33:01;21.00;99.70
29917;DHT22;16786;49.466;11.068;2023-05-27T09:35:37;21.10;99.00
29917;DHT22;16786;49.466;11.068;2023-05-27T09:38:07;21.40;98.70
29917;DHT22;16786;49.466;11.068;2023-05-27T09:40:36;21.60;98.40
29917;DHT22;16786;49.466;11.068;2023-05-27T09:43:04;21.70;97.50
29917;DHT22;16786;49.466;11.068;2023-05-27T09:45:33;21.70;96.90
29917;DHT22;16786;49.466;11.068;2023-05-27T09:48:01;21.70;96.20
29917;DHT22;16786;49.466;11.068;2023-05-27T09:50:30;21.80;96.60
29917;DHT22;16786;49.466;11.068;2023-05-27T09:53:00;21.80;95.10
29917;DHT22;16786;49.466;11.068;2023-05-27T09:55:40;22.00;95.00
29917;DHT22;16786;49.466;11.068;2023-05-27T09:58:09;22.20;95.20
29917;DHT22;16786;49.466;11.068;2023-05-27T10:00:38;22.40;95.50
29917;DHT22;16786;49.466;11.068;2023-05-27T10:03:08;22.50;94.60
29917;DHT22;16786;49.466;11.068;2023-05-27T10:05:37;22.60;93.90
29917;DHT22;16786;49.466;11.068;2023-05-27T10:08:06;22.70;93.00
29917;DHT22;16786;49.466;11.068;2023-05-27T10:10:51;22.80;93.50
29917;DHT22;16786;49.466;11.068;2023-05-27T10:13:19;22.80;92.40
29917;DHT22;16786;49.466;11.068;2023-05-27T10:15:50;22.80;92.30
29917;DHT22;16786;49.466;11.068;2023-05-27T10:18:26;23.00;90.50
29917;DHT22;16786;49.466;11.068;2023-05-27T10:20:57;22.90;89.60
29917;DHT22;16786;49.466;11.068;2023-05-27T10:23:27;23.00;90.20
29917;DHT22;16786;49.466;11.068;2023-05-27T10:26:01;23.20;90.70
29917;DHT22;16786;49.466;11.068;2023-05-27T10:28:37;23.40;88.00
29917;DHT22;16786;49.466;11.068;2023-05-27T10:31:11;23.70;87.50
29917;DHT22;16786;49.466;11.068;2023-05-27T10:36:21;23.50;87.00
29917;DHT22;16786;49.466;11.068;2023-05-27T10:38:56;23.70;86.10
29917;DHT22;16786;49.466;11.068;2023-05-27T10:41:24;23.80;85.20
29917;DHT22;16786;49.466;11.068;2023-05-27T10:43:58;23.90;82.90
29917;DHT22;16786;49.466;11.068;2023-05-27T10:46:26;24.00;83.30
29917;DHT22;16786;49.466;11.068;2023-05-27T10:49:15;24.40;82.50
29917;DHT22;16786;49.466;11.068;2023-05-27T10:51:43;24.70;82.80
29917;DHT22;16786;49.466;11.068;2023-05-27T10:54:15;24.80;81.80
29917;DHT22;16786;49.466;11.068;2023-05-27T10:56:55;25.10;79.70
29917;DHT22;16786;49.466;11.068;2023-05-27T10:59:23;25.40;79.60
29917;DHT22;16786;49.466;11.068;2023-05-27T11:01:53;25.50;78.50
29917;DHT22;16786;49.466;11.068;2023-05-27T11:04:21;25.70;76.40
29917;DHT22;16786;49.466;11.068;2023-05-27T11:06:59;25.80;76.90
29917;DHT22;16786;49.466;11.068;2023-05-27T11:09:52;25.90;74.60
29917;DHT22;16786;49.466;11.068;2023-05-27T11:12:23;26.30;73.80
29917;DHT22;16786;49.466;11.068;2023-05-27T11:14:54;26.50;72.40
29917;DHT22;16786;49.466;11.068;2023-05-27T11:17:22;26.70;70.60
29917;DHT22;16786;49.466;11.068;2023-05-27T11:19:50;26.90;70.30
29917;DHT22;16786;49.466;11.068;2023-05-27T11:22:19;26.60;67.70
29917;DHT22;16786;49.466;11.068;2023-05-27T11:24:59;26.50;67.70
29917;DHT22;16786;49.466;11.068;2023-05-27T11:27:36;26.90;67.00
29917;DHT22;16786;49.466;11.068;2023-05-27T11:30:11;27.00;67.10
29917;DHT22;16786;49.466;11.068;2023-05-27T11:32:42;26.90;67.30
29917;DHT22;16786;49.466;11.068;2023-05-27T11:35:18;27.20;66.50
29917;DHT22;16786;49.466;11.068;2023-05-27T11:37:49;27.60;65.40
29917;DHT22;16786;49.466;11.068;2023-05-27T11:40:18;27.80;64.40
29917;DHT22;16786;49.466;11.068;2023-05-27T11:42:46;28.10;61.80
29917;DHT22;16786;49.466;11.068;2023-05-27T11:45:16;27.90;61.10
29917;DHT22;16786;49.466;11.068;2023-05-27T11:47:45;28.20;61.50
29917;DHT22;16786;49.466;11.068;2023-05-27T11:50:20;28.40;62.40
29917;DHT22;16786;49.466;11.068;2023-05-27T11:52:55;28.60;60.70
29917;DHT22;16786;49.466;11.068;2023-05-27T11:55:23;28.50;57.90
29917;DHT22;16786;49.466;11.068;2023-05-27T11:57:51;29.00;57.80
29917;DHT22;16786;49.466;11.068;2023-05-27T12:00:18;29.50;56.80
29917;DHT22;16786;49.466;11.068;2023-05-27T12:02:46;29.50;55.90
29917;DHT22;16786;49.466;11.068;2023-05-27T12:05:14;29.60;56.10
29917;DHT22;16786;49.466;11.068;2023-05-27T12:07:59;30.10;55.20
29917;DHT22;16786;49.466;11.068;2023-05-27T12:10:27;30.40;54.10
29917;DHT22;16786;49.466;11.068;2023-05-27T12:13:03;31.00;52.70
29917;DHT22;16786;49.466;11.068;2023-05-27T12:15:30;31.20;52.60
29917;DHT22;16786;49.466;11.068;2023-05-27T12:18:04;31.20;51.30
29917;DHT22;16786;49.466;11.068;2023-05-27T12:20:32;31.00;50.90
29917;DHT22;16786;49.466;11.068;2023-05-27T12:23:00;31.10;50.60
29917;DHT22;16786;49.466;11.068;2023-05-27T12:25:27;31.00;50.50
29917;DHT22;16786;49.466;11.068;2023-05-27T12:27:54;31.50;50.10
29917;DHT22;16786;49.466;11.068;2023-05-27T12:30:22;31.70;50.80
29917;DHT22;16786;49.466;11.068;2023-05-27T12:32:49;32.20;50.20
29917;DHT22;16786;49.466;11.068;2023-05-27T12:35:17;32.50;49.90
29917;DHT22;16786;49.466;11.068;2023-05-27T12:37:44;32.50;50.40
29917;DHT22;16786;49.466;11.068;2023-05-27T12:40:12;33.10;48.70
29917;DHT22;16786;49.466;11.068;2023-05-27T12:42:42;33.30;47.00
29917;DHT22;16786;49.466;11.068;2023-05-27T12:45:09;33.30;46.60
29917;DHT22;16786;49.466;11.068;2023-05-27T12:47:37;32.90;46.70
29917;DHT22;16786;49.466;11.068;2023-05-27T12:50:06;33.20;46.70
29917;DHT22;16786;49.466;11.068;2023-05-27T12:52:34;33.70;46.20
29917;DHT22;16786;49.466;11.068;2023-05-27T12:55:02;33.60;47.30
29917;DHT22;16786;49.466;11.068;2023-05-27T12:57:30;33.00;47.90
29917;DHT22;16786;49.466;11.068;2023-05-27T12:59:57;33.30;48.40
29917;DHT22;16786;49.466;11.068;2023-05-27T13:02:25;34.00;47.10
29917;DHT22;16786;49.466;11.068;2023-05-27T13:04:52;34.50;45.60
29917;DHT22;16786;49.466;11.068;2023-05-27T13:07:20;34.50;44.40
29917;DHT22;16786;49.466;11.068;2023-05-27T13:09:47;35.00;43.00
29917;DHT22;16786;49.466;11.068;2023-05-27T13:12:14;35.10;43.20
29917;DHT22;16786;49.466;11.068;2023-05-27T13:14:42;35.20;44.20
29917;DHT22;16786;49.466;11.068;2023-05-27T13:17:09;35.60;43.70
29917;DHT22;16786;49.466;11.068;2023-05-27T13:19:37;35.00;42.30
29917;DHT22;16786;49.466;11.068;2023-05-27T13:22:05;35.10;42.10
29917;DHT22;16786;49.466;11.068;2023-05-27T13:24:32;35.40;41.10
29917;DHT22;16786;49.466;11.068;2023-05-27T13:27:00;35.60;40.60
29917;DHT22;16786;49.466;11.068;2023-05-27T13:29:27;35.80;40.10
29917;DHT22;16786;49.466;11.068;2023-05-27T13:31:54;36.20;40.70
29917;DHT22;16786;49.466;11.068;2023-05-27T13:34:23;36.40;39.10
29917;DHT22;16786;49.466;11.068;2023-05-27T13:36:51;36.40;39.00
29917;DHT22;16786;49.466;11.068;2023-05-27T13:39:18;36.60;38.40
29917;DHT22;16786;49.466;11.068;2023-05-27T13:41:45;37.00;38.00
29917;DHT22;16786;49.466;11.068;2023-05-27T13:44:14;37.40;37.90
29917;DHT22;16786;49.466;11.068;2023-05-27T13:46:41;36.90;38.10
29917;DHT22;16786;49.466;11.068;2023-05-27T13:49:09;37.60;38.50
29917;DHT22;16786;49.466;11.068;2023-05-27T13:51:44;37.70;37.60
29917;DHT22;16786;49.466;11.068;2023-05-27T13:54:12;38.10;37.00
29917;DHT22;16786;49.466;11.068;2023-05-27T13:56:41;38.90;36.30
29917;DHT22;16786;49.466;11.068;2023-05-27T13:59:08;39.90;36.30
29917;DHT22;16786;49.466;11.068;2023-05-27T14:01:39;40.90;36.20
29917;DHT22;16786;49.466;11.068;2023-05-27T14:04:07;41.70;35.10
29917;DHT22;16786;49.466;11.068;2023-05-27T14:06:35;42.20;34.90
29917;DHT22;16786;49.466;11.068;2023-05-27T14:09:02;42.60;34.20
29917;DHT22;16786;49.466;11.068;2023-05-27T14:11:29;42.60;33.10
29917;DHT22;16786;49.466;11.068;2023-05-27T14:13:57;43.30;32.20
29917;DHT22;16786;49.466;11.068;2023-05-27T14:16:24;43.60;31.90
29917;DHT22;16786;49.466;11.068;2023-05-27T14:18:52;44.60;31.20
29917;DHT22;16786;49.466;11.068;2023-05-27T14:21:19;44.60;30.60
29917;DHT22;16786;49.466;11.068;2023-05-27T14:23:46;44.70;30.50
29917;DHT22;16786;49.466;11.068;2023-05-27T14:26:14;45.10;30.40
29917;DHT22;16786;49.466;11.068;2023-05-27T14:28:42;46.40;30.00
29917;DHT22;16786;49.466;11.068;2023-05-27T14:31:09;45.70;30.20
29917;DHT22;16786;49.466;11.068;2023-05-27T14:33:37;45.70;29.80
29917;DHT22;16786;49.466;11.068;2023-05-27T14:36:04;45.80;29.00
29917;DHT22;16786;49.466;11.068;2023-05-27T14:38:32;45.90;28.80
29917;DHT22;16786;49.466;11.068;2023-05-27T14:41:00;45.40;28.70
29917;DHT22;16786;49.466;11.068;2023-05-27T14:43:27;46.20;29.00
29917;DHT22;16786;49.466;11.068;2023-05-27T14:45:55;46.00;29.10
29917;DHT22;16786;49.466;11.068;2023-05-27T14:48:22;46.20;29.00
29917;DHT22;16786;49.466;11.068;2023-05-27T14:50:50;46.30;28.80
29917;DHT22;16786;49.466;11.068;2023-05-27T14:53:17;46.20;29.00
29917;DHT22;16786;49.466;11.068;2023-05-27T14:55:44;46.60;28.80
29917;DHT22;16786;49.466;11.068;2023-05-27T14:58:12;45.60;29.00
29917;DHT22;16786;49.466;11.068;2023-05-27T15:00:41;46.00;28.90
29917;DHT22;16786;49.466;11.068;2023-05-27T15:03:08;45.90;29.30
29917;DHT22;16786;49.466;11.068;2023-05-27T15:05:36;45.70;29.10
29917;DHT22;16786;49.466;11.068;2023-05-27T15:08:03;46.30;28.90
29917;DHT22;16786;49.466;11.068;2023-05-27T15:10:32;44.90;28.80
29917;DHT22;16786;49.466;11.068;2023-05-27T15:13:00;44.70;29.50
29917;DHT22;16786;49.466;11.068;2023-05-27T15:15:27;45.40;29.20
29917;DHT22;16786;49.466;11.068;2023-05-27T15:17:55;45.20;29.60
29917;DHT22;16786;49.466;11.068;2023-05-27T15:20:22;46.30;28.90
29917;DHT22;16786;49.466;11.068;2023-05-27T15:22:50;46.40;29.10
29917;DHT22;16786;49.466;11.068;2023-05-27T15:25:18;45.70;29.50
29917;DHT22;16786;49.466;11.068;2023-05-27T15:27:45;46.30;29.40
29917;DHT22;16786;49.466;11.068;2023-05-27T15:30:13;46.90;29.30
29917;DHT22;16786;49.466;11.068;2023-05-27T15:32:40;46.40;29.40
29917;DHT22;16786;49.466;11.068;2023-05-27T15:35:08;46.00;29.20
29917;DHT22;16786;49.466;11.068;2023-05-27T15:37:36;45.20;29.50
29917;DHT22;16786;49.466;11.068;2023-05-27T15:40:05;45.10;30.00
29917;DHT22;16786;49.466;11.068;2023-05-27T15:42:32;45.30;29.70
29917;DHT22;16786;49.466;11.068;2023-05-27T15:45:00;45.40;29.50
29917;DHT22;16786;49.466;11.068;2023-05-27T15:47:28;46.10;29.10